Time;durP1;ratioP1;P1;durP2;ratioP2;P2;SDS_P1;SDS_P2;PMS_P1;PMS_P2;Temp;Humidity;BMP_temperature;BMP_pressure;BME280_temperature;BME280_humidity;BME280_pressure;Samples;Min_cycle;Max_cycle;Signal;HPM_P1;HPM_P2
2024/02/08 00:02:03;;;;;;;;;;;;;;;0.63;100.00;95395.87;106546;1304;23518;-87
2024/02/08 00:04:47;;;;;;;;;;;;;;;0.61;100.00;95393.10;106529;1304;23065;-87
2024/02/08 00:07:13;;;;;;;;;;;;;;;0.61;100.00;95396.54;106793;1301;22570;-87
2024/02/08 00:09:58;;;;;;;;;;;;;;;;;;;;;
2024/02/08 00:12:39;;;;;;;;;;;;;;;0.65;100.00;95392.09;106679;1304;124708;-87
2024/02/08 00:15:20;;;;;;;;;;;;;;;0.68;100.00;95397.11;106384;1304;22511;-87
2024/02/08 00:18:11;;;;;;;;;;;;;;;0.69;100.00;95392.36;106375;1304;124900;-87
2024/02/08 00:20:44;;;;;;;;;;;;;;;0.72;100.00;95387.17;106722;1292;24596;-87
2024/02/08 00:23:38;;;;;;;;;;;;;;;0.71;100.00;95380.27;106538;1302;124880;-87
2024/02/08 00:26:45;;;;;;;;;;;;;;;0.72;100.00;95381.05;106588;1304;22575;-87
2024/02/08 00:29:37;;;;;;;;;;;;;;;0.75;100.00;95387.89;106668;1300;124842;-86
2024/02/08 00:32:26;;;;;;;;;;;;;;;;;;;;;
2024/02/08 00:35:03;;;;;;;;;;;;;;;0.77;100.00;95390.25;106560;1295;124823;-87
2024/02/08 00:38:09;;;;;;;;;;;;;;;;;;;;;
2024/02/08 00:41:01;;;;;;;;;;;;;;;;;;;;;
2024/02/08 00:43:41;;;;;;;;;;;;;;;0.78;100.00;95398.19;106561;1303;23265;-86
2024/02/08 00:46:43;;;;;;;;;;;;;;;0.75;100.00;95393.69;106500;1304;23217;-88
2024/02/08 00:49:42;;;;;;;;;;;;;;;0.79;100.00;95387.86;106664;1304;124614;-87
2024/02/08 00:52:33;;;;;;;;;;;;;;;;;;;;;
2024/02/08 00:55:30;;;;;;;;;;;;;;;;;;;;;
2024/02/08 00:58:27;;;;;;;;;;;;;;;;;;;;;
2024/02/08 01:01:36;;;;;;;;;;;;;;;0.84;100.00;95387.93;106631;1297;124803;-86
2024/02/08 01:04:48;;;;;;;;;;;;;;;0.84;100.00;95383.79;106553;1298;22686;-87
2024/02/08 01:08:02;;;;;;;;;;;;;;;0.82;100.00;95382.94;106802;1298;124498;-87
2024/02/08 01:10:50;;;;;;;;;;;;;;;0.82;100.00;95381.42;106810;1303;22665;-87
2024/02/08 01:13:48;;;;;;;;;;;;;;;0.82;100.00;95382.45;106490;1302;22667;-87
2024/02/08 01:16:45;;;;;;;;;;;;;;;;;;;;;
2024/02/08 01:19:53;;;;;;;;;;;;;;;0.83;100.00;95385.08;106744;1300;124470;-87
2024/02/08 01:22:53;;;;;;;;;;;;;;;0.84;100.00;95382.27;106835;1303;22557;-87
2024/02/08 01:25:50;;;;;;;;;;;;;;;0.83;100.00;95377.08;106733;1300;22593;-87
2024/02/08 01:28:39;;;;;;;;;;;;;;;;;;;;;
2024/02/08 01:31:43;;;;;;;;;;;;;;;0.86;100.00;95378.49;106525;1303;123794;-87
2024/02/08 01:34:28;;;;;;;;;;;;;;;;;;;;;
2024/02/08 01:37:12;;;;;;;;;;;;;;;0.83;100.00;95375.17;106551;1302;124901;-87
2024/02/08 01:40:21;;;;;;;;;;;;;;;0.84;100.00;95371.52;106626;1299;24225;-87
2024/02/08 01:43:31;;;;;;;;;;;;;;;0.84;100.00;95367.39;106653;1298;125341;-86
2024/02/08 01:46:26;;;;;;;;;;;;;;;0.84;100.00;95362.36;102917;1294;5375150;-87
2024/02/08 01:49:37;;;;;;;;;;;;;;;0.83;100.00;95357.34;106586;1303;125560;-87
2024/02/08 01:52:28;;;;;;;;;;;;;;;;;;;;;
2024/02/08 01:55:36;;;;;;;;;;;;;;;0.84;100.00;95350.86;106623;1303;124953;-87
2024/02/08 01:58:28;;;;;;;;;;;;;;;0.85;100.00;95350.82;106842;1297;22563;-87
2024/02/08 02:01:34;;;;;;;;;;;;;;;0.85;100.00;95354.38;106587;1303;124690;-87
2024/02/08 02:04:08;;;;;;;;;;;;;;;0.82;100.00;95357.41;106873;1302;22499;-87
2024/02/08 02:07:00;;;;;;;;;;;;;;;0.79;100.00;95355.75;106645;1303;124664;-87
2024/02/08 02:09:32;;;;;;;;;;;;;;;0.82;100.00;95354.70;106654;1303;22565;-87
2024/02/08 02:12:48;;;;;;;;;;;;;;;0.84;100.00;95351.55;106630;1300;125261;-87
2024/02/08 02:15:41;;;;;;;;;;;;;;;;;;;;;
2024/02/08 02:18:26;;;;;;;;;;;;;;;0.88;100.00;95352.05;106563;1303;124855;-87
2024/02/08 02:21:17;;;;;;;;;;;;;;;0.88;100.00;95352.70;106891;1302;22531;-87
2024/02/08 02:24:24;;;;;;;;;;;;;;;0.88;100.00;95350.95;106576;1301;125068;-87
2024/02/08 02:27:15;;;;;;;;;;;;;;;;;;;;;
2024/02/08 02:29:53;;;;;;;;;;;;;;;0.90;100.00;95348.42;106494;1303;124863;-87
2024/02/08 02:32:54;;;;;;;;;;;;;;;0.89;100.00;95350.09;106641;1303;23801;-87
2024/02/08 02:35:48;;;;;;;;;;;;;;;0.87;100.00;95350.45;106750;1303;124916;-87
2024/02/08 02:38:31;;;;;;;;;;;;;;;0.85;100.00;95352.30;106762;1303;25246;-87
2024/02/08 02:41:46;;;;;;;;;;;;;;;0.88;100.00;95353.57;106621;1296;124989;-87
2024/02/08 02:44:18;;;;;;;;;;;;;;;;;;;;;
2024/02/08 02:46:59;;;;;;;;;;;;;;;0.90;100.00;95350.33;106805;1303;22531;-87
2024/02/08 02:49:45;;;;;;;;;;;;;;;0.91;100.00;95350.26;106888;1303;22547;-86
2024/02/08 02:52:12;;;;;;;;;;;;;;;0.92;100.00;95345.30;106871;1303;22562;-87
2024/02/08 02:54:44;;;;;;;;;;;;;;;0.93;100.00;95340.81;106522;1303;125492;-86
2024/02/08 02:57:34;;;;;;;;;;;;;;;0.95;100.00;95336.41;106611;1303;22591;-87
2024/02/08 03:00:23;;;;;;;;;;;;;;;0.96;100.00;95331.81;106261;1307;125303;-88
2024/02/08 03:03:37;;;;;;;;;;;;;;;0.97;100.00;95329.17;106303;1303;24299;-87
2024/02/08 03:06:53;;;;;;;;;;;;;;;0.90;100.00;95328.52;106259;1303;125379;-87
2024/02/08 03:09:30;;;;;;;;;;;;;;;0.90;100.00;95331.55;106350;1307;23069;-87
2024/02/08 03:12:37;;;;;;;;;;;;;;;0.91;100.00;95329.89;106178;1301;124989;-86
2024/02/08 03:15:25;;;;;;;;;;;;;;;;;;;;;
2024/02/08 03:18:23;;;;;;;;;;;;;;;0.93;100.00;95329.05;106289;1303;124834;-87
2024/02/08 03:21:13;;;;;;;;;;;;;;;;;;;;;
2024/02/08 03:24:24;;;;;;;;;;;;;;;0.95;100.00;95332.48;106289;1299;125577;-87
2024/02/08 03:27:30;;;;;;;;;;;;;;;0.95;100.00;95335.10;106796;1296;22605;-87
2024/02/08 03:30:19;;;;;;;;;;;;;;;;;;;;;
2024/02/08 03:33:18;;;;;;;;;;;;;;;0.93;100.00;95341.70;106627;1303;22583;-87
2024/02/08 03:36:24;;;;;;;;;;;;;;;0.88;100.00;95338.73;106822;1298;124944;-87
2024/02/08 03:39:14;;;;;;;;;;;;;;;0.86;100.00;95340.13;106860;1303;24221;-87
2024/02/08 03:42:14;;;;;;;;;;;;;;;0.85;100.00;95344.09;106752;1298;125282;-87
2024/02/08 03:45:06;;;;;;;;;;;;;;;;;;;;;
2024/02/08 03:48:14;;;;;;;;;;;;;;;0.84;100.00;95339.44;106747;1303;124876;-87
2024/02/08 03:51:22;;;;;;;;;;;;;;;0.83;100.00;95342.65;106892;1298;22627;-87
2024/02/08 03:54:16;;;;;;;;;;;;;;;;;;;;;
2024/02/08 03:57:08;;;;;;;;;;;;;;;0.81;100.00;95347.39;106810;1303;22561;-87
2024/02/08 04:00:04;;;;;;;;;;;;;;;;;;;;;
2024/02/08 04:02:44;;;;;;;;;;;;;;;0.85;100.00;95345.52;106637;1300;22539;-87
2024/02/08 04:06:26;;;;;;;;;;;;;;;0.86;100.00;95346.58;106831;1302;124966;-87
2024/02/08 04:54:16;;;;;;;;;;;;;;;0.74;100.00;95345.84;106843;1303;124612;-84
2024/02/08 04:57:09;;;;;;;;;;;;;;;0.74;100.00;95341.10;106459;1301;22553;-84
2024/02/08 04:59:52;;;;;;;;;;;;;;;0.76;100.00;95343.98;106572;1303;125739;-84
2024/02/08 05:02:26;;;;;;;;;;;;;;;0.73;100.00;95342.40;106688;1303;24872;-84
2024/02/08 05:05:16;;;;;;;;;;;;;;;0.71;100.00;95339.73;106706;1297;23098;-84
2024/02/08 05:07:49;;;;;;;;;;;;;;;0.70;100.00;95335.02;106838;1302;22560;-84
2024/02/08 05:10:43;;;;;;;;;;;;;;;0.70;100.00;95332.98;106472;1297;22532;-84
2024/02/08 05:13:13;;;;;;;;;;;;;;;0.70;100.00;95325.84;106565;1297;126363;-86
2024/02/08 05:15:46;;;;;;;;;;;;;;;0.71;100.00;95330.21;106609;1303;22550;-86
2024/02/08 05:18:24;;;;;;;;;;;;;;;0.71;100.00;95338.52;106616;1302;124715;-86
2024/02/08 05:21:03;;;;;;;;;;;;;;;;;;;;;
2024/02/08 05:23:35;;;;;;;;;;;;;;;0.69;100.00;95335.50;106782;1299;125296;-86
2024/02/08 05:26:21;;;;;;;;;;;;;;;;;;;;;
2024/02/08 05:28:56;;;;;;;;;;;;;;;0.67;100.00;95327.34;106605;1303;22588;-85
2024/02/08 05:31:56;;;;;;;;;;;;;;;;;;;;;
2024/02/08 05:34:35;;;;;;;;;;;;;;;0.67;100.00;95325.75;106792;1303;23732;-86
2024/02/08 05:37:12;;;;;;;;;;;;;;;0.66;100.00;95328.77;106618;1303;124728;-85
2024/02/08 05:39:44;;;;;;;;;;;;;;;0.67;100.00;95326.64;106594;1303;23288;-87
2024/02/08 05:42:18;;;;;;;;;;;;;;;0.65;100.00;95326.84;106443;1303;124700;-86
2024/02/08 05:44:48;;;;;;;;;;;;;;;0.63;100.00;95324.95;106521;1303;25628;-86
2024/02/08 05:47:15;;;;;;;;;;;;;;;0.66;100.00;95324.14;106668;1300;124885;-86
2024/02/08 05:49:48;;;;;;;;;;;;;;;0.65;100.00;95320.70;106430;1303;22539;-86
2024/02/08 05:52:19;;;;;;;;;;;;;;;0.61;100.00;95328.01;106650;1303;22577;-86
2024/02/08 05:54:48;;;;;;;;;;;;;;;0.62;100.00;95327.05;106439;1300;124672;-85
2024/02/08 05:57:18;;;;;;;;;;;;;;;0.64;100.00;95327.60;106647;1303;22546;-86
2024/02/08 05:59:54;;;;;;;;;;;;;;;0.66;100.00;95328.95;106718;1295;124974;-86
2024/02/08 06:02:29;;;;;;;;;;;;;;;0.68;100.00;95326.52;106653;1296;22540;-86
2024/02/08 06:05:00;;;;;;;;;;;;;;;0.70;100.00;95329.44;106784;1303;22843;-86
2024/02/08 06:07:36;;;;;;;;;;;;;;;0.70;100.00;95323.11;106550;1299;124620;-86
2024/02/08 06:10:22;;;;;;;;;;;;;;;0.70;100.00;95315.73;106870;1297;23889;-87
2024/02/08 06:12:59;;;;;;;;;;;;;;;0.71;100.00;95313.95;106769;1300;124832;-85
2024/02/08 06:15:42;;;;;;;;;;;;;;;0.70;100.00;95314.92;106799;1295;23423;-86
2024/02/08 06:18:19;;;;;;;;;;;;;;;0.68;100.00;95312.27;106502;1303;125137;-86
2024/02/08 06:23:50;;;;;;;;;;;;;;;0.54;100.00;95322.52;106325;1296;124949;-86
2024/02/08 06:26:27;;;;;;;;;;;;;;;0.51;100.00;95324.36;106852;1294;22536;-85
2024/02/08 06:29:05;;;;;;;;;;;;;;;0.52;100.00;95325.16;106877;1297;22559;-86
2024/02/08 06:31:50;;;;;;;;;;;;;;;0.51;100.00;95323.23;106773;1300;125323;-86
2024/02/08 06:35:06;;;;;;;;;;;;;;;0.53;100.00;95325.23;106746;1297;25966;-86
2024/02/08 06:37:32;;;;;;;;;;;;;;;0.59;100.00;95331.77;106542;1303;124802;-86
2024/02/08 06:40:07;;;;;;;;;;;;;;;0.61;100.00;95335.87;106580;1303;22557;-86
2024/02/08 07:42:00;;;;;;;;;;;;;;;0.99;100.00;95314.48;106570;1297;125485;-86
2024/02/08 07:45:04;;;;;;;;;;;;;;;;;;;;;
2024/02/08 07:48:13;;;;;;;;;;;;;;;1.05;100.00;95311.69;106563;1303;124846;-86
2024/02/08 07:50:58;;;;;;;;;;;;;;;1.07;100.00;95307.41;106857;1297;22567;-86
2024/02/08 07:54:10;;;;;;;;;;;;;;;1.07;100.00;95302.84;106689;1298;124870;-86
2024/02/08 07:57:06;;;;;;;;;;;;;;;;;;;;;
2024/02/08 08:00:08;;;;;;;;;;;;;;;1.09;100.00;95304.26;106776;1294;124903;-86
2024/02/08 08:02:56;;;;;;;;;;;;;;;1.08;100.00;95298.59;106976;1303;22564;-86
2024/02/08 08:05:56;;;;;;;;;;;;;;;1.06;100.00;95298.42;106603;1294;123849;-84
2024/02/08 08:11:45;;;;;;;;;;;;;;;;;;;;;
2024/02/08 08:17:59;;;;;;;;;;;;;;;1.22;100.00;95293.66;106679;1290;123782;-84
2024/02/08 08:24:00;;;;;;;;;;;;;;;1.27;100.00;95299.77;106747;1297;22523;-84
2024/02/08 08:26:47;;;;;;;;;;;;;;;1.30;100.00;95295.25;106693;1296;22580;-84
2024/02/08 08:29:59;;;;;;;;;;;;;;;1.34;100.00;95282.70;106690;1302;22520;-84
2024/02/08 08:36:41;;;;;;;;;;;;;;;1.37;100.00;95260.73;106729;1297;22546;-84
2024/02/08 08:42:25;;;;;;;;;;;;;;;1.48;100.00;95257.09;106276;1303;124812;-85
2024/02/08 08:45:19;;;;;;;;;;;;;;;1.53;100.00;95258.64;106602;1303;24358;-84
2024/02/08 08:48:21;;;;;;;;;;;;;;;;;;;;;
2024/02/08 08:51:58;;;;;;;;;;;;;;;1.62;100.00;95248.90;106947;1299;22657;-84
2024/02/08 08:54:56;;;;;;;;;;;;;;;1.66;100.00;95251.56;106706;1296;125382;-84
2024/02/08 08:57:53;;;;;;;;;;;;;;;1.66;100.00;95250.35;106890;1300;24354;-84
2024/02/08 09:00:58;;;;;;;;;;;;;;;1.69;100.00;95252.62;106801;1303;124818;-85
2024/02/08 09:04:32;;;;;;;;;;;;;;;1.73;100.00;95255.27;106879;1297;22549;-85
2024/02/08 09:07:10;;;;;;;;;;;;;;;1.74;100.00;95268.28;106748;1290;124802;-84
2024/02/08 09:13:37;;;;;;;;;;;;;;;1.79;100.00;95265.40;106069;1309;125153;-85
2024/02/08 09:19:51;;;;;;;;;;;;;;;1.79;100.00;95271.15;105984;1306;123858;-84
2024/02/08 09:23:12;;;;;;;;;;;;;;;1.84;100.00;95274.32;106860;1296;22799;-85
2024/02/08 09:26:39;;;;;;;;;;;;;;;1.92;100.00;95268.48;106515;1303;123686;-84
2024/02/08 09:29:15;;;;;;;;;;;;;;;1.98;100.00;95265.52;106825;1300;23281;-85
2024/02/08 09:32:46;;;;;;;;;;;;;;;2.01;100.00;95269.70;106810;1303;125198;-85
2024/02/08 09:35:41;;;;;;;;;;;;;;;1.99;100.00;95270.05;106811;1297;22557;-85
2024/02/08 09:39:14;;;;;;;;;;;;;;;1.97;100.00;95264.11;106755;1303;22502;-85
2024/02/08 09:41:49;;;;;;;;;;;;;;;1.95;100.00;95265.98;106809;1287;23388;-85
2024/02/08 09:44:56;;;;;;;;;;;;;;;1.94;100.00;95259.80;106844;1303;22840;-85
2024/02/08 09:48:00;;;;;;;;;;;;;;;1.94;100.00;95250.71;106693;1297;25533;-85
2024/02/08 09:51:35;;;;;;;;;;;;;;;1.94;100.00;95241.67;106796;1303;22561;-85
2024/02/08 10:04:30;;;;;;;;;;;;;;;1.99;100.00;95217.91;106156;1309;22519;-85
2024/02/08 10:10:43;;;;;;;;;;;;;;;2.04;100.00;95220.15;106123;1309;22577;-85
2024/02/08 10:13:26;;;;;;;;;;;;;;;2.03;100.00;95229.09;106492;1296;125329;-85
2024/02/08 10:16:09;;;;;;;;;;;;;;;;;;;;;
2024/02/08 10:19:24;;;;;;;;;;;;;;;2.00;100.00;95231.88;106672;1297;124877;-85
2024/02/08 10:28:56;;;;;;;;;;;;;;;1.99;100.00;95182.39;106132;1309;22724;-85
2024/02/08 10:32:03;;;;;;;;;;;;;;;2.03;100.00;95190.55;106454;1303;124701;-85
2024/02/08 10:35:39;;;;;;;;;;;;;;;1.99;100.00;95206.70;106853;1303;22603;-85
2024/02/08 10:41:27;;;;;;;;;;;;;;;2.01;100.00;95199.63;107206;1303;22559;-85
2024/02/08 10:44:34;;;;;;;;;;;;;;;2.02;100.00;95191.14;106946;1303;125268;-85
2024/02/08 10:51:11;;;;;;;;;;;;;;;2.06;100.00;95180.50;106700;1298;123750;-85
2024/02/08 11:07:17;;;;;;;;;;;;;;;2.10;100.00;95152.23;106961;1303;22534;-85
2024/02/08 11:09:59;;;;;;;;;;;;;;;2.17;100.00;95160.19;106775;1294;25421;-85
2024/02/08 11:13:00;;;;;;;;;;;;;;;2.22;100.00;95157.67;106797;1303;124885;-85
2024/02/08 11:16:19;;;;;;;;;;;;;;;2.24;100.00;95162.03;106875;1297;22601;-84
2024/02/08 11:19:16;;;;;;;;;;;;;;;2.25;100.00;95165.61;106653;1301;125119;-85
2024/02/08 11:22:08;;;;;;;;;;;;;;;2.25;100.00;95170.48;106801;1303;22530;-85
2024/02/08 11:28:09;;;;;;;;;;;;;;;2.29;100.00;95171.75;106747;1303;22591;-87
2024/02/08 11:31:41;;;;;;;;;;;;;;;2.32;100.00;95170.95;106613;1297;124873;-87
2024/02/08 11:34:27;;;;;;;;;;;;;;;2.30;100.00;95170.09;106849;1303;24046;-87
2024/02/08 11:37:37;;;;;;;;;;;;;;;2.28;100.00;95159.39;106672;1298;124667;-87
2024/02/08 11:40:39;;;;;;;;;;;;;;;;;;;;;
2024/02/08 11:50:04;;;;;;;;;;;;;;;2.43;100.00;95110.82;106516;1303;124922;-87
2024/02/08 11:53:11;;;;;;;;;;;;;;;2.47;100.00;95109.20;106920;1300;23033;-87
2024/02/08 11:56:58;;;;;;;;;;;;;;;2.54;100.00;95103.53;106854;1302;125207;-87
2024/02/08 11:59:28;;;;;;;;;;;;;;;2.58;100.00;95102.01;106693;1303;22575;-87
2024/02/08 12:02:26;;;;;;;;;;;;;;;;;;;;;
2024/02/08 12:05:34;;;;;;;;;;;;;;;2.61;100.00;95098.27;106895;1297;23303;-87
2024/02/08 12:08:44;;;;;;;;;;;;;;;2.62;100.00;95100.61;106837;1295;126235;-87
2024/02/08 12:11:51;;;;;;;;;;;;;;;2.61;100.00;95094.59;106777;1302;22568;-87
2024/02/08 12:14:58;;;;;;;;;;;;;;;2.63;100.00;95089.58;106893;1297;125593;-87
2024/02/08 12:18:05;;;;;;;;;;;;;;;2.65;100.00;95090.34;106776;1304;22506;-86
2024/02/08 12:21:17;;;;;;;;;;;;;;;2.63;100.00;95086.30;106961;1303;22598;-87
2024/02/08 12:24:23;;;;;;;;;;;;;;;2.63;100.00;95083.59;106940;1297;22540;-87
2024/02/08 12:27:12;;;;;;;;;;;;;;;2.64;100.00;95081.55;106815;1303;22813;-87
2024/02/08 12:30:17;;;;;;;;;;;;;;;2.63;100.00;95081.85;106738;1303;22548;-87
2024/02/08 12:33:26;;;;;;;;;;;;;;;2.63;100.00;95082.91;106842;1295;22650;-86
2024/02/08 12:36:31;;;;;;;;;;;;;;;2.65;100.00;95077.16;106895;1299;23062;-87
2024/02/08 12:39:32;;;;;;;;;;;;;;;;;;;;;
2024/02/08 12:42:41;;;;;;;;;;;;;;;2.67;100.00;95065.16;106937;1300;24459;-86
2024/02/08 12:46:10;;;;;;;;;;;;;;;2.63;100.00;95064.38;106791;1302;23712;-86
2024/02/08 12:48:58;;;;;;;;;;;;;;;2.60;100.00;95069.00;106729;1297;22611;-86
2024/02/08 12:52:09;;;;;;;;;;;;;;;2.60;100.00;95060.45;106895;1297;22675;-87
2024/02/08 12:55:15;;;;;;;;;;;;;;;2.61;100.00;95057.15;106977;1300;22544;-86
2024/02/08 12:58:43;;;;;;;;;;;;;;;2.63;100.00;95052.61;106958;1302;23210;-86
2024/02/08 13:01:35;;;;;;;;;;;;;;;2.66;100.00;95044.55;106793;1295;125213;-88
2024/02/08 13:05:06;;;;;;;;;;;;;;;2.68;100.00;95042.59;106667;1303;22552;-87
2024/02/08 13:07:48;;;;;;;;;;;;;;;2.72;100.00;95039.81;106784;1303;125531;-87
2024/02/08 13:10:58;;;;;;;;;;;;;;;2.73;100.00;95041.83;106935;1300;22562;-87
2024/02/08 13:14:05;;;;;;;;;;;;;;;2.75;100.00;95040.90;106964;1300;125746;-87
2024/02/08 13:17:13;;;;;;;;;;;;;;;2.80;100.00;95030.98;107024;1302;22540;-87
2024/02/08 13:20:21;;;;;;;;;;;;;;;2.85;100.00;95031.02;106943;1291;124909;-87
2024/02/08 13:23:51;;;;;;;;;;;;;;;2.87;100.00;95028.72;106937;1303;22698;-87
2024/02/08 13:26:36;;;;;;;;;;;;;;;2.89;100.00;95013.86;106729;1294;124650;-87
2024/02/08 13:29:41;;;;;;;;;;;;;;;2.91;100.00;95014.02;106939;1297;23072;-86
2024/02/08 13:33:13;;;;;;;;;;;;;;;2.93;100.00;95021.59;106824;1303;124807;-87
2024/02/08 13:35:52;;;;;;;;;;;;;;;;;;;;;
2024/02/08 13:39:00;;;;;;;;;;;;;;;2.98;100.00;95025.52;106729;1297;124779;-87
2024/02/08 13:42:09;;;;;;;;;;;;;;;2.98;100.00;95019.88;106924;1298;23801;-87
2024/02/08 13:45:16;;;;;;;;;;;;;;;2.98;100.00;95019.64;102856;1303;5407226;-86
2024/02/08 13:48:29;;;;;;;;;;;;;;;2.99;100.00;95023.51;106446;1300;22575;-87
2024/02/08 13:51:33;;;;;;;;;;;;;;;2.99;100.00;95029.20;106472;1301;123863;-87
2024/02/08 13:54:40;;;;;;;;;;;;;;;3.00;100.00;95027.13;106393;1300;22569;-87
2024/02/08 13:57:49;;;;;;;;;;;;;;;3.00;100.00;95029.21;106383;1306;125572;-87
2024/02/08 14:01:25;;;;;;;;;;;;;;;2.99;100.00;95026.79;106606;1298;22565;-88
2024/02/08 14:04:05;;;;;;;;;;;;;;;2.95;100.00;95029.80;106449;1306;22571;-89
2024/02/08 14:07:11;;;;;;;;;;;;;;;2.93;100.00;95031.05;106569;1300;22610;-88
2024/02/08 14:10:17;;;;;;;;;;;;;;;2.93;100.00;95014.43;106667;1306;22547;-88
2024/02/08 14:16:29;;;;;;;;;;;;;;;2.93;100.00;95009.15;106600;1294;23832;-87
2024/02/08 14:22:48;;;;;;;;;;;;;;;2.94;100.00;95016.88;106450;1301;25431;-88
2024/02/08 14:29:16;;;;;;;;;;;;;;;2.96;100.00;95007.47;106155;1303;22579;-88
2024/02/08 14:32:24;;;;;;;;;;;;;;;2.95;100.00;95012.80;105973;1310;125241;-88
2024/02/08 14:35:31;;;;;;;;;;;;;;;2.97;100.00;95013.52;106009;1311;23867;-85
2024/02/08 14:38:40;;;;;;;;;;;;;;;2.97;100.00;95011.75;106768;1297;124661;-86
2024/02/08 14:42:10;;;;;;;;;;;;;;;2.94;100.00;95013.28;107030;1303;22614;-86
2024/02/08 14:44:56;;;;;;;;;;;;;;;2.94;100.00;95007.00;106827;1300;123757;-86
2024/02/08 14:48:02;;;;;;;;;;;;;;;2.96;100.00;95015.67;106949;1303;22547;-86
2024/02/08 14:51:03;;;;;;;;;;;;;;;;;;;;;
2024/02/08 14:54:16;;;;;;;;;;;;;;;2.95;100.00;95010.73;106959;1296;25428;-86
2024/02/08 14:57:45;;;;;;;;;;;;;;;2.96;100.00;95007.40;106849;1288;123731;-87
2024/02/08 15:03:38;;;;;;;;;;;;;;;2.95;100.00;95013.66;106753;1297;124742;-87
2024/02/08 15:13:45;;;;;;;;;;;;;;;2.98;100.00;95008.13;106410;1303;23082;-87
2024/02/08 15:16:30;;;;;;;;;;;;;;;2.97;100.00;95004.80;106740;1296;22650;-87
2024/02/08 15:19:33;;;;;;;;;;;;;;;2.97;100.00;94991.39;106898;1297;22536;-86
2024/02/08 15:23:09;;;;;;;;;;;;;;;2.95;100.00;94988.86;106964;1298;22544;-87
2024/02/08 15:25:48;;;;;;;;;;;;;;;2.96;100.00;94983.31;106802;1296;24213;-87
2024/02/08 15:28:59;;;;;;;;;;;;;;;2.96;100.00;94979.38;106950;1303;22565;-87
2024/02/08 15:42:02;;;;;;;;;;;;;;;2.97;100.00;94975.98;106690;1299;22919;-87
2024/02/08 15:51:49;;;;;;;;;;;;;;;3.02;100.00;94969.35;106219;1308;125868;-87
2024/02/08 15:54:38;;;;;;;;;;;;;;;3.06;100.00;94963.48;106307;1308;24276;-87
2024/02/08 15:58:16;;;;;;;;;;;;;;;3.08;100.00;94956.23;106276;1308;125030;-86
2024/02/08 16:10:44;;;;;;;;;;;;;;;3.51;100.00;94941.21;106087;1309;24298;-87
2024/02/08 16:14:15;;;;;;;;;;;;;;;3.60;100.00;94939.17;106246;1303;25933;-87
2024/02/08 16:17:36;;;;;;;;;;;;;;;3.68;100.00;94939.27;106848;1302;24236;-86
2024/02/08 16:20:24;;;;;;;;;;;;;;;3.76;100.00;94941.63;106894;1298;24199;-86
2024/02/08 16:26:34;;;;;;;;;;;;;;;3.84;100.00;94939.90;106549;1303;22585;-87
2024/02/08 16:40:07;;;;;;;;;;;;;;;3.92;100.00;94925.29;106681;1302;124648;-85
2024/02/08 16:42:34;;;;;;;;;;;;;;;3.91;100.00;94930.27;106722;1303;23866;-85
2024/02/08 16:48:47;;;;;;;;;;;;;;;3.90;100.00;94921.20;106900;1302;22575;-85
2024/02/08 16:52:07;;;;;;;;;;;;;;;3.90;100.00;94917.04;106876;1302;124734;-85
2024/02/08 16:55:12;;;;;;;;;;;;;;;3.90;100.00;94916.14;106727;1304;24267;-85
2024/02/08 16:58:38;;;;;;;;;;;;;;;3.90;100.00;94907.11;106716;1303;123663;-85
2024/02/08 17:01:27;;;;;;;;;;;;;;;3.90;100.00;94912.23;106627;1298;22561;-85
2024/02/08 17:11:15;;;;;;;;;;;;;;;3.99;100.00;94908.38;106227;1309;22595;-85
2024/02/08 17:14:32;;;;;;;;;;;;;;;3.99;100.00;94910.08;106169;1309;22509;-85
2024/02/08 17:17:49;;;;;;;;;;;;;;;3.99;100.00;94911.42;106204;1309;22615;-85
2024/02/08 17:21:05;;;;;;;;;;;;;;;4.01;100.00;94908.75;106608;1304;124887;-85
2024/02/08 17:23:59;;;;;;;;;;;;;;;4.04;100.00;94908.48;106697;1297;24027;-86
2024/02/08 17:27:18;;;;;;;;;;;;;;;4.06;100.00;94899.61;106595;1304;124866;-85
2024/02/08 17:30:17;;;;;;;;;;;;;;;4.06;100.00;94899.07;106815;1303;22537;-86
2024/02/08 17:33:11;;;;;;;;;;;;;;;4.08;100.00;94896.98;106604;1297;125063;-85
2024/02/08 17:36:14;;;;;;;;;;;;;;;4.09;100.00;94898.05;106780;1303;25420;-86
2024/02/08 17:39:48;;;;;;;;;;;;;;;4.11;100.00;94893.25;106708;1303;123843;-85
2024/02/08 17:42:49;;;;;;;;;;;;;;;4.11;100.00;94889.77;106726;1304;22562;-85
2024/02/08 17:46:03;;;;;;;;;;;;;;;4.11;100.00;94888.04;106563;1304;125638;-85
2024/02/08 17:48:39;;;;;;;;;;;;;;;4.12;100.00;94887.96;106768;1299;24266;-85
2024/02/08 17:55:08;;;;;;;;;;;;;;;4.13;100.00;94881.45;106240;1308;22558;-86
2024/02/08 17:58:17;;;;;;;;;;;;;;;4.13;100.00;94881.48;106141;1309;123646;-85
2024/02/08 18:01:31;;;;;;;;;;;;;;;4.14;100.00;94869.36;106241;1308;22497;-86
2024/02/08 18:04:54;;;;;;;;;;;;;;;4.15;100.00;94863.98;106660;1304;124952;-86
2024/02/08 18:07:34;;;;;;;;;;;;;;;;;;;;;
2024/02/08 18:10:45;;;;;;;;;;;;;;;4.14;100.00;94849.30;106697;1304;125061;-86
2024/02/08 18:13:50;;;;;;;;;;;;;;;4.13;100.00;94843.48;106759;1296;22641;-85
2024/02/08 18:17:23;;;;;;;;;;;;;;;4.14;100.00;94839.53;106795;1298;22665;-86
2024/02/08 18:20:14;;;;;;;;;;;;;;;4.17;100.00;94834.54;106798;1297;23232;-85
2024/02/08 18:26:49;;;;;;;;;;;;;;;4.23;100.00;94822.41;106450;1303;22571;-86
2024/02/08 18:29:35;;;;;;;;;;;;;;;4.25;100.00;94816.41;106725;1301;22576;-85
2024/02/08 18:33:03;;;;;;;;;;;;;;;4.24;100.00;94805.38;106753;1304;22540;-86
2024/02/08 18:35:47;;;;;;;;;;;;;;;4.24;100.00;94802.09;106688;1304;22589;-86
2024/02/08 18:38:55;;;;;;;;;;;;;;;4.27;100.00;94803.85;107005;1304;124982;-86
2024/02/08 18:42:06;;;;;;;;;;;;;;;4.28;100.00;94799.55;106813;1304;24942;-86
2024/02/08 18:45:36;;;;;;;;;;;;;;;4.31;100.00;94798.98;106725;1297;124961;-86
2024/02/08 18:48:22;;;;;;;;;;;;;;;4.34;100.00;94797.15;106597;1304;23549;-86
2024/02/08 18:51:25;;;;;;;;;;;;;;;4.35;100.00;94801.20;106675;1304;123964;-86
2024/02/08 18:54:34;;;;;;;;;;;;;;;4.37;100.00;94787.61;106941;1303;23825;-85
2024/02/08 18:57:41;;;;;;;;;;;;;;;4.38;100.00;94784.84;106903;1302;124674;-86
2024/02/08 19:00:49;;;;;;;;;;;;;;;4.39;100.00;94779.21;106909;1303;22572;-86
2024/02/08 19:03:55;;;;;;;;;;;;;;;4.40;100.00;94773.27;106796;1303;124626;-86
2024/02/08 19:07:05;;;;;;;;;;;;;;;4.43;100.00;94779.26;106921;1303;22580;-86
2024/02/08 19:10:12;;;;;;;;;;;;;;;4.45;100.00;94774.57;106811;1296;125433;-86
2024/02/08 19:13:15;;;;;;;;;;;;;;;;;;;;;
2024/02/08 19:16:27;;;;;;;;;;;;;;;4.46;100.00;94767.89;106835;1303;124728;-86
2024/02/08 19:19:33;;;;;;;;;;;;;;;4.49;100.00;94761.90;106892;1299;23170;-86
2024/02/08 19:22:39;;;;;;;;;;;;;;;4.51;100.00;94758.99;106756;1303;125296;-85
2024/02/08 19:25:47;;;;;;;;;;;;;;;4.53;100.00;94759.48;106902;1303;22647;-85
2024/02/08 19:28:52;;;;;;;;;;;;;;;4.54;100.00;94754.97;106826;1301;126936;-86
2024/02/08 19:32:01;;;;;;;;;;;;;;;4.55;100.00;94747.27;106952;1303;22638;-85
2024/02/08 19:35:10;;;;;;;;;;;;;;;4.54;100.00;94746.31;106859;1296;124721;-86
2024/02/08 19:38:17;;;;;;;;;;;;;;;4.56;100.00;94738.23;106947;1302;22538;-85
2024/02/08 19:41:21;;;;;;;;;;;;;;;4.58;100.00;94731.02;106817;1301;22537;-86
2024/02/08 19:44:27;;;;;;;;;;;;;;;4.57;100.00;94722.85;106943;1295;22579;-85
2024/02/08 19:47:43;;;;;;;;;;;;;;;4.60;100.00;94716.34;106919;1302;22599;-86
2024/02/08 19:50:48;;;;;;;;;;;;;;;4.61;100.00;94713.42;106779;1302;22547;-85
2024/02/08 19:53:55;;;;;;;;;;;;;;;4.63;100.00;94717.15;106919;1303;22546;-86
2024/02/08 19:57:05;;;;;;;;;;;;;;;4.65;100.00;94714.23;106953;1298;22666;-84
2024/02/08 20:00:17;;;;;;;;;;;;;;;4.65;100.00;94712.52;106665;1303;22906;-86
2024/02/08 20:03:26;;;;;;;;;;;;;;;4.65;100.00;94710.05;106818;1303;123824;-86
2024/02/08 20:06:27;;;;;;;;;;;;;;;4.66;100.00;94712.81;106932;1296;22743;-86
2024/02/08 20:09:36;;;;;;;;;;;;;;;4.65;100.00;94717.02;106856;1296;124893;-86
2024/02/08 20:13:11;;;;;;;;;;;;;;;4.64;100.00;94722.54;106871;1303;22580;-86
2024/02/08 20:19:10;;;;;;;;;;;;;;;4.63;100.00;94723.60;106345;1307;22600;-86
2024/02/08 20:22:19;;;;;;;;;;;;;;;4.62;100.00;94721.93;106212;1308;125244;-85